メインページ
METAR-TAF:

METAR-TAF

空港 :

マル・デル・プラタ, アルゼンチン

緯度: 37-56S, 経度: 057-35W, 海抜: 18m

現時点の気象観測

当レポートは40分前の00:00(UTC)に作成
北東の風 8kt
気温 15°C
湿度 82%
気圧 1015 hPa
視程10km以上
1,500メートル以下は雲なし、積乱雲なし

METAR: SAZM 120000Z 05008KT CAVOK 15/12 Q1015

時間: 21:40 (00:40 UTC)

予報

当レポートは1時間40分前の23:00(UTC)に作成
予報は12日の 00時(UTC)から 12日の 24時(UTC)まで有効
北東の風 10kt
視程10km以上
1,500メートル以下は雲なし、積乱雲なし
12日の 05時(UTC)から 12日の 07時(UTC)まで徐々に
北/北東の風 10kt
12日の 12時(UTC)から 12日の 12時(UTC)まで徐々に
北/北西の風 15kt
視程10km以上
高度3000ftの雲は散在している
高度10000ftの千切れ雲あり

TAF: SAZM 112300Z 1200/1224 05010KT CAVOK TX27/1218Z TN10/1209Z BECMG 1205/1207 02010KT BECMG 1212/121214 34015KT 9999 SCT030 BKN100

4,000以上の空港の気象観測と天気予報(METAR報とTAF報)

利用可能な観測所は地図上に黄色い丸と赤い丸で示す。

丸の上にカーソルを重ねると観測所名を参照できる。

次にクリックすると気象観測と天気予報を参照できる。

マップの切り替え:黒色「×」印の緑ボタンをクリックして拡大、「-」印の緑ボタンをクリックして縮小、緑色の三角印をクリックして隣りの地図に切り替え


METAR-TAF: